Terminal Aerodrome Forecast
Issued by NWS

Home | Current Version | Previous Version | Text Only | Print | Product List | Glossary On
Versions: 1 2 3 4 5 6 7 8 9 10 11 12 13 14 15
000
FTAK31 PAJN 231700
TAFAYA
TAF
PAYA 231720Z 2318/2418 VRB03KT P6SM BCFG SCT004 SCT050
      TEMPO 2318/2319 3SM BR
     FM231900 VRB04KT P6SM FEW100
     FM240600 VRB02KT P6SM BKN080
      AMD LTD TO CLD VIS AND WIND 2401/2410=

USA.gov is the U.S. government's official web portal to all federal, state and local government web resources and services.